sensor_id;sensor_type;location;lat;lon;timestamp;P1;P4;P2;P0;N10;N4;N25;N1;N05;TS
84586;SPS30;74809;48.198;16.302;2024-01-15T00:03:54;8.3;;8.6;7.7;;;;;;
84586;SPS30;74809;48.198;16.302;2024-01-15T00:08:54;7.9;;8.2;7.3;;;;;;
84586;SPS30;74809;48.198;16.302;2024-01-15T00:13:56;8.9;;9.4;8.1;;;;;;
84586;SPS30;74809;48.198;16.302;2024-01-15T00:18:54;9.4;;9.8;8.6;;;;;;
84586;SPS30;74809;48.198;16.302;2024-01-15T00:23:54;9.2;;9.6;8.4;;;;;;
84586;SPS30;74809;48.198;16.302;2024-01-15T00:28:54;9.1;;9.3;8.4;;;;;;
84586;SPS30;74809;48.198;16.302;2024-01-15T00:33:54;9.3;;9.6;8.6;;;;;;
84586;SPS30;74809;48.198;16.302;2024-01-15T00:38:54;8.2;;8.4;7.7;;;;;;
84586;SPS30;74809;48.198;16.302;2024-01-15T00:44:04;10.8;;11.1;10.0;;;;;;
84586;SPS30;74809;48.198;16.302;2024-01-15T00:48:54;11.1;;11.6;10.2;;;;;;
84586;SPS30;74809;48.198;16.302;2024-01-15T00:53:54;10.8;;11.1;10.1;;;;;;
84586;SPS30;74809;48.198;16.302;2024-01-15T00:58:54;9.1;;9.5;8.3;;;;;;
84586;SPS30;74809;48.198;16.302;2024-01-15T01:03:54;8.7;;9.0;8.0;;;;;;
84586;SPS30;74809;48.198;16.302;2024-01-15T01:08:54;7.8;;8.1;7.2;;;;;;
84586;SPS30;74809;48.198;16.302;2024-01-15T01:13:59;7.9;;8.3;7.2;;;;;;
84586;SPS30;74809;48.198;16.302;2024-01-15T01:18:54;8.5;;8.9;7.8;;;;;;
84586;SPS30;74809;48.198;16.302;2024-01-15T01:23:56;9.4;;9.7;8.7;;;;;;
84586;SPS30;74809;48.198;16.302;2024-01-15T01:28:57;11.8;;12.3;10.9;;;;;;
84586;SPS30;74809;48.198;16.302;2024-01-15T01:33:56;12.7;;13.3;11.6;;;;;;
84586;SPS30;74809;48.198;16.302;2024-01-15T01:38:54;13.2;;13.7;12.3;;;;;;
84586;SPS30;74809;48.198;16.302;2024-01-15T01:43:54;12.6;;13.1;11.6;;;;;;
84586;SPS30;74809;48.198;16.302;2024-01-15T01:48:59;13.1;;13.9;11.8;;;;;;
84586;SPS30;74809;48.198;16.302;2024-01-15T01:53:54;14.2;;14.8;13.0;;;;;;
84586;SPS30;74809;48.198;16.302;2024-01-15T01:58:59;14.5;;15.3;13.2;;;;;;
84586;SPS30;74809;48.198;16.302;2024-01-15T02:03:54;13.8;;14.5;12.7;;;;;;
84586;SPS30;74809;48.198;16.302;2024-01-15T02:08:57;13.9;;14.4;12.8;;;;;;
84586;SPS30;74809;48.198;16.302;2024-01-15T02:13:56;15.8;;16.5;14.5;;;;;;
84586;SPS30;74809;48.198;16.302;2024-01-15T02:18:54;16.1;;16.8;14.8;;;;;;
84586;SPS30;74809;48.198;16.302;2024-01-15T02:23:56;16.5;;17.2;15.1;;;;;;
84586;SPS30;74809;48.198;16.302;2024-01-15T02:28:54;16.6;;17.2;15.4;;;;;;
84586;SPS30;74809;48.198;16.302;2024-01-15T02:33:54;17.4;;17.9;16.2;;;;;;
84586;SPS30;74809;48.198;16.302;2024-01-15T02:38:54;16.5;;17.3;15.1;;;;;;
84586;SPS30;74809;48.198;16.302;2024-01-15T02:43:56;17.2;;17.8;15.9;;;;;;
84586;SPS30;74809;48.198;16.302;2024-01-15T02:48:57;17.1;;17.7;15.8;;;;;;
84586;SPS30;74809;48.198;16.302;2024-01-15T02:53:54;15.6;;16.1;14.5;;;;;;
84586;SPS30;74809;48.198;16.302;2024-01-15T02:58:54;17.1;;17.8;15.8;;;;;;
84586;SPS30;74809;48.198;16.302;2024-01-15T03:03:54;17.4;;18.2;15.9;;;;;;
84586;SPS30;74809;48.198;16.302;2024-01-15T03:08:54;17.7;;18.4;16.4;;;;;;
84586;SPS30;74809;48.198;16.302;2024-01-15T03:14:01;17.8;;18.4;16.5;;;;;;
84586;SPS30;74809;48.198;16.302;2024-01-15T03:18:54;17.9;;18.5;16.5;;;;;;
84586;SPS30;74809;48.198;16.302;2024-01-15T03:23:56;17.7;;18.3;16.4;;;;;;
84586;SPS30;74809;48.198;16.302;2024-01-15T03:28:56;17.8;;18.7;16.2;;;;;;
84586;SPS30;74809;48.198;16.302;2024-01-15T03:33:54;18.5;;19.2;17.1;;;;;;
84586;SPS30;74809;48.198;16.302;2024-01-15T03:38:54;20.0;;20.7;18.6;;;;;;
84586;SPS30;74809;48.198;16.302;2024-01-15T03:43:54;20.2;;21.2;18.5;;;;;;
84586;SPS30;74809;48.198;16.302;2024-01-15T03:48:54;21.6;;22.5;19.8;;;;;;
84586;SPS30;74809;48.198;16.302;2024-01-15T03:53:54;20.8;;21.5;19.2;;;;;;
84586;SPS30;74809;48.198;16.302;2024-01-15T03:58:57;22.2;;22.9;20.7;;;;;;
84586;SPS30;74809;48.198;16.302;2024-01-15T04:03:54;22.9;;23.5;21.3;;;;;;
84586;SPS30;74809;48.198;16.302;2024-01-15T04:08:57;21.4;;22.5;19.5;;;;;;
84586;SPS30;74809;48.198;16.302;2024-01-15T04:13:54;21.1;;22.1;19.3;;;;;;
84586;SPS30;74809;48.198;16.302;2024-01-15T04:18:54;20.8;;21.7;19.2;;;;;;
84586;SPS30;74809;48.198;16.302;2024-01-15T04:23:54;20.5;;21.2;19.0;;;;;;
84586;SPS30;74809;48.198;16.302;2024-01-15T04:28:54;18.4;;18.9;17.0;;;;;;
84586;SPS30;74809;48.198;16.302;2024-01-15T04:33:54;19.9;;20.4;18.5;;;;;;
84586;SPS30;74809;48.198;16.302;2024-01-15T04:38:54;19.9;;20.6;18.4;;;;;;
84586;SPS30;74809;48.198;16.302;2024-01-15T04:43:54;19.7;;20.4;18.3;;;;;;
84586;SPS30;74809;48.198;16.302;2024-01-15T04:48:54;20.3;;20.9;18.9;;;;;;
84586;SPS30;74809;48.198;16.302;2024-01-15T04:53:54;20.7;;21.5;19.1;;;;;;
84586;SPS30;74809;48.198;16.302;2024-01-15T04:58:54;21.0;;21.8;19.4;;;;;;
84586;SPS30;74809;48.198;16.302;2024-01-15T05:03:59;21.5;;21.9;20.3;;;;;;
84586;SPS30;74809;48.198;16.302;2024-01-15T05:08:54;22.5;;23.4;20.7;;;;;;
84586;SPS30;74809;48.198;16.302;2024-01-15T05:13:54;22.4;;23.2;20.7;;;;;;
84586;SPS30;74809;48.198;16.302;2024-01-15T05:18:54;23.6;;24.8;21.6;;;;;;
84586;SPS30;74809;48.198;16.302;2024-01-15T05:23:54;20.6;;21.2;19.2;;;;;;
84586;SPS30;74809;48.198;16.302;2024-01-15T05:28:56;22.7;;23.4;21.0;;;;;;
84586;SPS30;74809;48.198;16.302;2024-01-15T05:33:54;20.6;;21.3;19.1;;;;;;
84586;SPS30;74809;48.198;16.302;2024-01-15T05:39:01;20.7;;21.3;19.2;;;;;;
84586;SPS30;74809;48.198;16.302;2024-01-15T05:43:57;22.2;;23.1;20.5;;;;;;
84586;SPS30;74809;48.198;16.302;2024-01-15T05:48:54;19.1;;19.9;17.6;;;;;;
84586;SPS30;74809;48.198;16.302;2024-01-15T05:53:56;20.7;;21.4;19.2;;;;;;
84586;SPS30;74809;48.198;16.302;2024-01-15T05:58:54;17.9;;18.4;16.6;;;;;;
84586;SPS30;74809;48.198;16.302;2024-01-15T06:03:57;17.3;;18.1;15.9;;;;;;
84586;SPS30;74809;48.198;16.302;2024-01-15T06:08:54;15.4;;15.9;14.3;;;;;;
84586;SPS30;74809;48.198;16.302;2024-01-15T06:13:54;14.7;;15.2;13.6;;;;;;
84586;SPS30;74809;48.198;16.302;2024-01-15T06:18:54;16.2;;16.6;15.2;;;;;;
84586;SPS30;74809;48.198;16.302;2024-01-15T06:23:54;18.2;;18.9;16.8;;;;;;
84586;SPS30;74809;48.198;16.302;2024-01-15T06:28:54;18.7;;19.5;17.3;;;;;;
84586;SPS30;74809;48.198;16.302;2024-01-15T06:33:54;17.8;;18.5;16.4;;;;;;
84586;SPS30;74809;48.198;16.302;2024-01-15T06:38:54;18.3;;19.0;16.9;;;;;;
84586;SPS30;74809;48.198;16.302;2024-01-15T06:43:54;17.2;;17.9;15.7;;;;;;
84586;SPS30;74809;48.198;16.302;2024-01-15T06:48:54;18.1;;18.8;16.7;;;;;;
84586;SPS30;74809;48.198;16.302;2024-01-15T06:53:57;18.0;;18.5;16.8;;;;;;
84586;SPS30;74809;48.198;16.302;2024-01-15T06:58:54;16.8;;17.3;15.5;;;;;;
84586;SPS30;74809;48.198;16.302;2024-01-15T07:03:54;17.9;;18.6;16.6;;;;;;
84586;SPS30;74809;48.198;16.302;2024-01-15T07:08:56;16.6;;17.1;15.4;;;;;;
84586;SPS30;74809;48.198;16.302;2024-01-15T07:13:56;15.6;;16.2;14.4;;;;;;
84586;SPS30;74809;48.198;16.302;2024-01-15T07:18:54;15.3;;15.8;14.2;;;;;;
84586;SPS30;74809;48.198;16.302;2024-01-15T07:23:54;14.1;;14.5;13.2;;;;;;
84586;SPS30;74809;48.198;16.302;2024-01-15T07:28:54;14.5;;15.0;13.5;;;;;;
84586;SPS30;74809;48.198;16.302;2024-01-15T07:33:55;15.0;;15.4;13.9;;;;;;
84586;SPS30;74809;48.198;16.302;2024-01-15T07:38:54;13.9;;14.3;12.9;;;;;;
84586;SPS30;74809;48.198;16.302;2024-01-15T07:43:56;14.5;;15.2;13.3;;;;;;
84586;SPS30;74809;48.198;16.302;2024-01-15T07:48:57;15.4;;15.9;14.3;;;;;;
84586;SPS30;74809;48.198;16.302;2024-01-15T07:53:54;16.5;;17.0;15.4;;;;;;
84586;SPS30;74809;48.198;16.302;2024-01-15T07:58:54;15.4;;15.8;14.3;;;;;;
84586;SPS30;74809;48.198;16.302;2024-01-15T08:03:54;16.4;;17.2;15.0;;;;;;
84586;SPS30;74809;48.198;16.302;2024-01-15T08:08:54;16.0;;16.4;14.9;;;;;;
84586;SPS30;74809;48.198;16.302;2024-01-15T08:13:54;15.5;;15.9;14.5;;;;;;
84586;SPS30;74809;48.198;16.302;2024-01-15T08:18:54;16.6;;16.9;15.5;;;;;;
84586;SPS30;74809;48.198;16.302;2024-01-15T08:23:54;16.4;;16.6;15.5;;;;;;
84586;SPS30;74809;48.198;16.302;2024-01-15T08:28:57;15.8;;16.4;14.6;;;;;;
84586;SPS30;74809;48.198;16.302;2024-01-15T08:33:54;13.6;;14.0;12.6;;;;;;
84586;SPS30;74809;48.198;16.302;2024-01-15T08:38:57;14.1;;14.5;13.1;;;;;;
84586;SPS30;74809;48.198;16.302;2024-01-15T08:43:54;12.5;;13.1;11.6;;;;;;
84586;SPS30;74809;48.198;16.302;2024-01-15T08:48:54;13.2;;13.7;12.3;;;;;;
84586;SPS30;74809;48.198;16.302;2024-01-15T08:53:57;12.2;;12.4;11.4;;;;;;
84586;SPS30;74809;48.198;16.302;2024-01-15T08:58:57;11.9;;12.1;11.2;;;;;;
84586;SPS30;74809;48.198;16.302;2024-01-15T09:03:56;11.2;;11.5;10.5;;;;;;
84586;SPS30;74809;48.198;16.302;2024-01-15T09:08:57;10.8;;11.1;10.0;;;;;;
84586;SPS30;74809;48.198;16.302;2024-01-15T09:13:54;9.6;;9.8;8.9;;;;;;
84586;SPS30;74809;48.198;16.302;2024-01-15T09:18:54;10.3;;10.5;9.6;;;;;;
84586;SPS30;74809;48.198;16.302;2024-01-15T09:23:57;10.3;;10.5;9.6;;;;;;
84586;SPS30;74809;48.198;16.302;2024-01-15T09:28:54;11.2;;11.5;10.4;;;;;;
84586;SPS30;74809;48.198;16.302;2024-01-15T09:33:54;11.2;;11.5;10.4;;;;;;
84586;SPS30;74809;48.198;16.302;2024-01-15T09:38:54;12.2;;12.7;11.3;;;;;;
84586;SPS30;74809;48.198;16.302;2024-01-15T09:43:54;10.3;;10.5;9.6;;;;;;
84586;SPS30;74809;48.198;16.302;2024-01-15T09:48:54;9.7;;10.0;9.0;;;;;;
84586;SPS30;74809;48.198;16.302;2024-01-15T09:53:54;9.9;;10.0;9.4;;;;;;
84586;SPS30;74809;48.198;16.302;2024-01-15T09:58:56;11.0;;11.4;10.2;;;;;;
84586;SPS30;74809;48.198;16.302;2024-01-15T10:03:54;10.1;;10.1;9.6;;;;;;
84586;SPS30;74809;48.198;16.302;2024-01-15T10:08:56;10.5;;10.9;9.8;;;;;;
84586;SPS30;74809;48.198;16.302;2024-01-15T10:13:54;11.7;;11.7;11.2;;;;;;
84586;SPS30;74809;48.198;16.302;2024-01-15T10:18:59;10.4;;10.7;9.7;;;;;;
84586;SPS30;74809;48.198;16.302;2024-01-15T10:23:54;10.5;;10.5;10.0;;;;;;
84586;SPS30;74809;48.198;16.302;2024-01-15T10:29:01;9.5;;9.8;8.9;;;;;;
84586;SPS30;74809;48.198;16.302;2024-01-15T10:33:57;9.0;;9.0;8.6;;;;;;
84586;SPS30;74809;48.198;16.302;2024-01-15T10:38:56;8.6;;8.6;8.2;;;;;;
84586;SPS30;74809;48.198;16.302;2024-01-15T10:43:57;8.3;;8.5;7.9;;;;;;
84586;SPS30;74809;48.198;16.302;2024-01-15T10:48:54;8.5;;8.5;8.1;;;;;;
84586;SPS30;74809;48.198;16.302;2024-01-15T10:53:56;7.8;;8.1;7.3;;;;;;
84586;SPS30;74809;48.198;16.302;2024-01-15T10:58:54;6.9;;7.0;6.6;;;;;;
84586;SPS30;74809;48.198;16.302;2024-01-15T11:03:55;9.1;;9.5;8.4;;;;;;
84586;SPS30;74809;48.198;16.302;2024-01-15T11:08:54;8.0;;8.1;7.6;;;;;;
84586;SPS30;74809;48.198;16.302;2024-01-15T11:13:56;7.7;;7.7;7.4;;;;;;
84586;SPS30;74809;48.198;16.302;2024-01-15T11:23:55;8.6;;8.8;8.0;;;;;;
84586;SPS30;74809;48.198;16.302;2024-01-15T11:28:55;7.4;;7.5;7.0;;;;;;
84586;SPS30;74809;48.198;16.302;2024-01-15T11:33:57;7.7;;7.8;7.3;;;;;;
84586;SPS30;74809;48.198;16.302;2024-01-15T11:38:54;6.6;;6.6;6.3;;;;;;
84586;SPS30;74809;48.198;16.302;2024-01-15T11:43:56;7.7;;7.7;7.3;;;;;;
84586;SPS30;74809;48.198;16.302;2024-01-15T11:48:54;9.1;;9.5;8.4;;;;;;
84586;SPS30;74809;48.198;16.302;2024-01-15T11:53:54;6.7;;6.7;6.4;;;;;;
84586;SPS30;74809;48.198;16.302;2024-01-15T11:58:54;7.9;;8.0;7.5;;;;;;
84586;SPS30;74809;48.198;16.302;2024-01-15T12:03:54;7.1;;7.1;6.8;;;;;;
84586;SPS30;74809;48.198;16.302;2024-01-15T12:09:05;6.9;;6.9;6.6;;;;;;
84586;SPS30;74809;48.198;16.302;2024-01-15T12:13:54;7.9;;7.9;7.5;;;;;;
84586;SPS30;74809;48.198;16.302;2024-01-15T12:18:54;6.8;;7.0;6.3;;;;;;
84586;SPS30;74809;48.198;16.302;2024-01-15T12:23:58;8.6;;8.6;8.2;;;;;;
84586;SPS30;74809;48.198;16.302;2024-01-15T12:28:54;7.4;;7.4;7.1;;;;;;
84586;SPS30;74809;48.198;16.302;2024-01-15T12:33:54;6.7;;6.7;6.4;;;;;;
84586;SPS30;74809;48.198;16.302;2024-01-15T12:38:54;6.4;;6.4;6.1;;;;;;
84586;SPS30;74809;48.198;16.302;2024-01-15T12:43:54;6.7;;6.7;6.4;;;;;;
84586;SPS30;74809;48.198;16.302;2024-01-15T12:48:54;7.2;;7.2;6.9;;;;;;
84586;SPS30;74809;48.198;16.302;2024-01-15T12:53:54;6.8;;6.8;6.5;;;;;;
84586;SPS30;74809;48.198;16.302;2024-01-15T12:58:57;6.4;;6.5;6.1;;;;;;
84586;SPS30;74809;48.198;16.302;2024-01-15T13:03:54;6.3;;6.3;6.0;;;;;;
84586;SPS30;74809;48.198;16.302;2024-01-15T13:08:57;7.2;;7.2;6.9;;;;;;
84586;SPS30;74809;48.198;16.302;2024-01-15T13:13:54;6.0;;6.3;5.5;;;;;;
84586;SPS30;74809;48.198;16.302;2024-01-15T13:18:54;6.4;;6.4;6.1;;;;;;
84586;SPS30;74809;48.198;16.302;2024-01-15T13:23:54;5.6;;5.8;5.2;;;;;;
84586;SPS30;74809;48.198;16.302;2024-01-15T13:28:57;5.1;;5.1;4.9;;;;;;
84586;SPS30;74809;48.198;16.302;2024-01-15T13:33:54;5.7;;5.9;5.2;;;;;;
84586;SPS30;74809;48.198;16.302;2024-01-15T13:38:54;5.5;;5.5;5.2;;;;;;
84586;SPS30;74809;48.198;16.302;2024-01-15T13:43:56;5.2;;5.2;4.9;;;;;;
84586;SPS30;74809;48.198;16.302;2024-01-15T13:48:57;5.1;;5.1;4.8;;;;;;
84586;SPS30;74809;48.198;16.302;2024-01-15T13:53:54;7.0;;7.0;6.6;;;;;;
84586;SPS30;74809;48.198;16.302;2024-01-15T13:58:54;5.7;;5.7;5.4;;;;;;
84586;SPS30;74809;48.198;16.302;2024-01-15T14:03:54;5.6;;5.7;5.2;;;;;;
84586;SPS30;74809;48.198;16.302;2024-01-15T14:08:54;5.1;;5.3;4.7;;;;;;
84586;SPS30;74809;48.198;16.302;2024-01-15T14:13:54;5.1;;5.1;4.9;;;;;;
84586;SPS30;74809;48.198;16.302;2024-01-15T14:18:54;5.5;;5.5;5.2;;;;;;
84586;SPS30;74809;48.198;16.302;2024-01-15T14:23:54;5.3;;5.3;5.1;;;;;;
84586;SPS30;74809;48.198;16.302;2024-01-15T14:28:54;5.2;;5.4;4.8;;;;;;
84586;SPS30;74809;48.198;16.302;2024-01-15T14:33:54;5.1;;5.1;4.8;;;;;;
84586;SPS30;74809;48.198;16.302;2024-01-15T14:38:58;4.7;;4.8;4.4;;;;;;
84586;SPS30;74809;48.198;16.302;2024-01-15T14:43:54;5.6;;5.7;5.3;;;;;;
84586;SPS30;74809;48.198;16.302;2024-01-15T14:48:59;6.1;;6.3;5.7;;;;;;
84586;SPS30;74809;48.198;16.302;2024-01-15T14:53:54;7.7;;8.0;7.1;;;;;;
84586;SPS30;74809;48.198;16.302;2024-01-15T14:58:56;5.7;;5.7;5.4;;;;;;
84586;SPS30;74809;48.198;16.302;2024-01-15T15:03:54;5.4;;5.6;5.0;;;;;;
84586;SPS30;74809;48.198;16.302;2024-01-15T15:08:54;6.4;;6.7;5.9;;;;;;
84586;SPS30;74809;48.198;16.302;2024-01-15T15:13:54;5.6;;5.8;5.2;;;;;;
84586;SPS30;74809;48.198;16.302;2024-01-15T15:18:55;4.9;;5.0;4.6;;;;;;
84586;SPS30;74809;48.198;16.302;2024-01-15T15:23:54;4.3;;4.4;4.0;;;;;;
84586;SPS30;74809;48.198;16.302;2024-01-15T15:28:56;4.5;;4.6;4.2;;;;;;
84586;SPS30;74809;48.198;16.302;2024-01-15T15:33:54;4.4;;4.5;4.1;;;;;;
84586;SPS30;74809;48.198;16.302;2024-01-15T15:38:57;4.4;;4.5;4.1;;;;;;
84586;SPS30;74809;48.198;16.302;2024-01-15T15:43:54;4.4;;4.4;4.1;;;;;;
84586;SPS30;74809;48.198;16.302;2024-01-15T15:48:54;4.0;;4.0;3.8;;;;;;
84586;SPS30;74809;48.198;16.302;2024-01-15T15:53:54;3.1;;3.1;3.0;;;;;;
84586;SPS30;74809;48.198;16.302;2024-01-15T15:58:57;4.2;;4.2;4.0;;;;;;
84586;SPS30;74809;48.198;16.302;2024-01-15T16:03:54;4.4;;4.4;4.2;;;;;;
84586;SPS30;74809;48.198;16.302;2024-01-15T16:08:54;6.5;;6.7;6.1;;;;;;
84586;SPS30;74809;48.198;16.302;2024-01-15T16:13:54;4.6;;4.8;4.3;;;;;;
84586;SPS30;74809;48.198;16.302;2024-01-15T16:18:54;5.5;;5.6;5.1;;;;;;
84586;SPS30;74809;48.198;16.302;2024-01-15T16:23:54;4.7;;4.8;4.3;;;;;;
84586;SPS30;74809;48.198;16.302;2024-01-15T16:28:54;4.1;;4.2;3.9;;;;;;
84586;SPS30;74809;48.198;16.302;2024-01-15T16:33:54;4.4;;4.6;4.1;;;;;;
84586;SPS30;74809;48.198;16.302;2024-01-15T16:38:54;5.6;;5.8;5.2;;;;;;
84586;SPS30;74809;48.198;16.302;2024-01-15T16:43:54;5.2;;5.2;5.0;;;;;;
84586;SPS30;74809;48.198;16.302;2024-01-15T16:48:54;4.9;;5.1;4.6;;;;;;
84586;SPS30;74809;48.198;16.302;2024-01-15T16:53:57;4.0;;4.1;3.7;;;;;;
84586;SPS30;74809;48.198;16.302;2024-01-15T16:58:54;3.9;;4.0;3.6;;;;;;
84586;SPS30;74809;48.198;16.302;2024-01-15T17:03:54;3.8;;3.8;3.6;;;;;;
84586;SPS30;74809;48.198;16.302;2024-01-15T17:08:54;3.9;;4.1;3.7;;;;;;
84586;SPS30;74809;48.198;16.302;2024-01-15T17:13:54;4.8;;4.9;4.5;;;;;;
84586;SPS30;74809;48.198;16.302;2024-01-15T17:18:54;4.4;;4.6;4.1;;;;;;
84586;SPS30;74809;48.198;16.302;2024-01-15T17:23:54;5.6;;5.7;5.3;;;;;;
84586;SPS30;74809;48.198;16.302;2024-01-15T17:28:54;4.2;;4.3;3.9;;;;;;
84586;SPS30;74809;48.198;16.302;2024-01-15T17:33:57;4.3;;4.4;4.0;;;;;;
84586;SPS30;74809;48.198;16.302;2024-01-15T17:38:54;4.7;;4.8;4.4;;;;;;
84586;SPS30;74809;48.198;16.302;2024-01-15T17:43:56;4.9;;4.9;4.7;;;;;;
84586;SPS30;74809;48.198;16.302;2024-01-15T17:48:54;4.2;;4.2;4.0;;;;;;
84586;SPS30;74809;48.198;16.302;2024-01-15T17:53:57;5.3;;5.3;5.0;;;;;;
84586;SPS30;74809;48.198;16.302;2024-01-15T17:58:54;5.7;;5.8;5.4;;;;;;
84586;SPS30;74809;48.198;16.302;2024-01-15T18:03:54;4.8;;4.9;4.4;;;;;;
84586;SPS30;74809;48.198;16.302;2024-01-15T18:08:59;4.1;;4.1;3.9;;;;;;
84586;SPS30;74809;48.198;16.302;2024-01-15T18:13:54;3.8;;3.9;3.6;;;;;;
84586;SPS30;74809;48.198;16.302;2024-01-15T18:18:54;3.6;;3.6;3.4;;;;;;
84586;SPS30;74809;48.198;16.302;2024-01-15T18:23:54;2.9;;2.9;2.8;;;;;;
84586;SPS30;74809;48.198;16.302;2024-01-15T18:28:54;4.2;;4.4;3.9;;;;;;
84586;SPS30;74809;48.198;16.302;2024-01-15T18:34:01;4.0;;4.1;3.7;;;;;;
84586;SPS30;74809;48.198;16.302;2024-01-15T18:38:57;3.4;;3.4;3.3;;;;;;
84586;SPS30;74809;48.198;16.302;2024-01-15T18:44:01;3.5;;3.6;3.2;;;;;;
84586;SPS30;74809;48.198;16.302;2024-01-15T18:48:54;3.3;;3.3;3.2;;;;;;
84586;SPS30;74809;48.198;16.302;2024-01-15T18:53:55;3.8;;3.9;3.6;;;;;;
84586;SPS30;74809;48.198;16.302;2024-01-15T18:58:57;3.1;;3.1;3.0;;;;;;
84586;SPS30;74809;48.198;16.302;2024-01-15T19:03:54;3.8;;3.8;3.7;;;;;;
84586;SPS30;74809;48.198;16.302;2024-01-15T19:08:54;3.7;;3.7;3.5;;;;;;
84586;SPS30;74809;48.198;16.302;2024-01-15T19:13:54;3.5;;3.5;3.3;;;;;;
84586;SPS30;74809;48.198;16.302;2024-01-15T19:18:54;3.1;;3.1;3.0;;;;;;
84586;SPS30;74809;48.198;16.302;2024-01-15T19:23:54;3.0;;3.0;2.9;;;;;;
84586;SPS30;74809;48.198;16.302;2024-01-15T19:28:54;2.9;;3.0;2.7;;;;;;
84586;SPS30;74809;48.198;16.302;2024-01-15T19:33:54;3.7;;3.8;3.5;;;;;;
84586;SPS30;74809;48.198;16.302;2024-01-15T19:38:54;3.3;;3.4;3.1;;;;;;
84586;SPS30;74809;48.198;16.302;2024-01-15T19:43:54;3.2;;3.2;3.0;;;;;;
84586;SPS30;74809;48.198;16.302;2024-01-15T19:48:54;3.1;;3.2;2.9;;;;;;
84586;SPS30;74809;48.198;16.302;2024-01-15T19:53:54;3.2;;3.2;3.1;;;;;;
84586;SPS30;74809;48.198;16.302;2024-01-15T19:58:57;3.6;;3.6;3.4;;;;;;
84586;SPS30;74809;48.198;16.302;2024-01-15T20:03:54;3.1;;3.1;3.0;;;;;;
84586;SPS30;74809;48.198;16.302;2024-01-15T20:08:57;3.3;;3.3;3.2;;;;;;
84586;SPS30;74809;48.198;16.302;2024-01-15T20:13:54;3.6;;3.6;3.4;;;;;;
84586;SPS30;74809;48.198;16.302;2024-01-15T20:18:57;3.3;;3.3;3.1;;;;;;
84586;SPS30;74809;48.198;16.302;2024-01-15T20:23:54;5.7;;6.0;5.3;;;;;;
84586;SPS30;74809;48.198;16.302;2024-01-15T20:28:56;4.1;;4.2;3.9;;;;;;
84586;SPS30;74809;48.198;16.302;2024-01-15T20:33:54;4.1;;4.1;3.9;;;;;;
84586;SPS30;74809;48.198;16.302;2024-01-15T20:38:56;4.1;;4.2;3.9;;;;;;
84586;SPS30;74809;48.198;16.302;2024-01-15T20:43:57;5.1;;5.1;4.9;;;;;;
84586;SPS30;74809;48.198;16.302;2024-01-15T20:48:54;5.0;;5.0;4.8;;;;;;
84586;SPS30;74809;48.198;16.302;2024-01-15T20:53:54;5.3;;5.3;5.1;;;;;;
84586;SPS30;74809;48.198;16.302;2024-01-15T20:58:54;4.7;;4.8;4.4;;;;;;
84586;SPS30;74809;48.198;16.302;2024-01-15T21:03:54;5.1;;5.1;4.8;;;;;;
84586;SPS30;74809;48.198;16.302;2024-01-15T21:08:56;4.8;;4.9;4.6;;;;;;
84586;SPS30;74809;48.198;16.302;2024-01-15T21:13:54;5.8;;5.8;5.5;;;;;;
84586;SPS30;74809;48.198;16.302;2024-01-15T21:18:56;5.5;;5.5;5.2;;;;;;
84586;SPS30;74809;48.198;16.302;2024-01-15T21:23:54;5.1;;5.1;4.9;;;;;;
84586;SPS30;74809;48.198;16.302;2024-01-15T21:28:55;6.0;;6.2;5.5;;;;;;
84586;SPS30;74809;48.198;16.302;2024-01-15T21:33:58;4.8;;4.8;4.6;;;;;;
84586;SPS30;74809;48.198;16.302;2024-01-15T21:38:54;5.6;;5.6;5.3;;;;;;
84586;SPS30;74809;48.198;16.302;2024-01-15T21:43:54;5.8;;5.8;5.6;;;;;;
84586;SPS30;74809;48.198;16.302;2024-01-15T21:48:54;6.7;;6.9;6.2;;;;;;
84586;SPS30;74809;48.198;16.302;2024-01-15T21:53:54;6.3;;6.3;6.0;;;;;;
84586;SPS30;74809;48.198;16.302;2024-01-15T21:58:57;6.0;;6.0;5.7;;;;;;
84586;SPS30;74809;48.198;16.302;2024-01-15T22:03:54;6.1;;6.1;5.8;;;;;;
84586;SPS30;74809;48.198;16.302;2024-01-15T22:08:54;5.9;;5.9;5.6;;;;;;
84586;SPS30;74809;48.198;16.302;2024-01-15T22:13:54;6.2;;6.2;5.9;;;;;;
84586;SPS30;74809;48.198;16.302;2024-01-15T22:18:57;5.6;;5.6;5.4;;;;;;
84586;SPS30;74809;48.198;16.302;2024-01-15T22:23:57;6.1;;6.1;5.9;;;;;;
84586;SPS30;74809;48.198;16.302;2024-01-15T22:29:00;5.3;;5.3;5.0;;;;;;
84586;SPS30;74809;48.198;16.302;2024-01-15T22:33:57;5.8;;5.8;5.5;;;;;;
84586;SPS30;74809;48.198;16.302;2024-01-15T22:38:57;5.4;;5.4;5.1;;;;;;
84586;SPS30;74809;48.198;16.302;2024-01-15T22:43:54;5.6;;5.6;5.3;;;;;;
84586;SPS30;74809;48.198;16.302;2024-01-15T22:48:54;5.4;;5.4;5.2;;;;;;
84586;SPS30;74809;48.198;16.302;2024-01-15T22:54:02;5.4;;5.4;5.2;;;;;;
84586;SPS30;74809;48.198;16.302;2024-01-15T22:58:54;5.3;;5.3;5.1;;;;;;
84586;SPS30;74809;48.198;16.302;2024-01-15T23:03:54;6.2;;6.2;5.9;;;;;;
84586;SPS30;74809;48.198;16.302;2024-01-15T23:08:54;5.4;;5.4;5.1;;;;;;
84586;SPS30;74809;48.198;16.302;2024-01-15T23:13:55;5.5;;5.5;5.3;;;;;;
84586;SPS30;74809;48.198;16.302;2024-01-15T23:18:54;5.9;;5.9;5.6;;;;;;
84586;SPS30;74809;48.198;16.302;2024-01-15T23:23:54;6.3;;6.3;6.0;;;;;;
84586;SPS30;74809;48.198;16.302;2024-01-15T23:28:57;7.4;;7.4;7.0;;;;;;
84586;SPS30;74809;48.198;16.302;2024-01-15T23:33:55;6.8;;6.8;6.5;;;;;;
84586;SPS30;74809;48.198;16.302;2024-01-15T23:38:54;5.9;;5.9;5.7;;;;;;
84586;SPS30;74809;48.198;16.302;2024-01-15T23:44:01;6.3;;6.3;6.0;;;;;;
84586;SPS30;74809;48.198;16.302;2024-01-15T23:48:57;6.5;;6.5;6.2;;;;;;
84586;SPS30;74809;48.198;16.302;2024-01-15T23:53:56;6.8;;6.8;6.5;;;;;;
84586;SPS30;74809;48.198;16.302;2024-01-15T23:58:57;6.9;;6.9;6.6;;;;;;
